sensor_id;sensor_type;location;lat;lon;timestamp;P1;durP1;ratioP1;P2;durP2;ratioP2
49296;SDS011;35163;48.878;18.040;2022-09-12T00:01:12;9.18;;;4.70;;
49296;SDS011;35163;48.878;18.040;2022-09-12T00:03:41;9.27;;;5.30;;
49296;SDS011;35163;48.878;18.040;2022-09-12T00:06:12;9.95;;;5.30;;
49296;SDS011;35163;48.878;18.040;2022-09-12T00:08:48;9.85;;;4.90;;
49296;SDS011;35163;48.878;18.040;2022-09-12T00:11:14;9.02;;;4.80;;
49296;SDS011;35163;48.878;18.040;2022-09-12T00:13:41;9.15;;;4.82;;
49296;SDS011;35163;48.878;18.040;2022-09-12T00:16:15;10.10;;;5.35;;
49296;SDS011;35163;48.878;18.040;2022-09-12T00:18:46;12.95;;;5.20;;
49296;SDS011;35163;48.878;18.040;2022-09-12T00:21:13;11.32;;;5.68;;
49296;SDS011;35163;48.878;18.040;2022-09-12T00:23:42;10.00;;;5.38;;
49296;SDS011;35163;48.878;18.040;2022-09-12T00:26:09;12.88;;;5.45;;
49296;SDS011;35163;48.878;18.040;2022-09-12T00:28:36;10.07;;;5.63;;
49296;SDS011;35163;48.878;18.040;2022-09-12T00:31:05;10.75;;;5.25;;
49296;SDS011;35163;48.878;18.040;2022-09-12T00:33:33;9.27;;;5.43;;
49296;SDS011;35163;48.878;18.040;2022-09-12T00:36:19;9.65;;;5.50;;
49296;SDS011;35163;48.878;18.040;2022-09-12T00:38:50;10.70;;;5.43;;
49296;SDS011;35163;48.878;18.040;2022-09-12T00:41:24;10.65;;;5.40;;
49296;SDS011;35163;48.878;18.040;2022-09-12T00:44:38;11.35;;;5.35;;
49296;SDS011;35163;48.878;18.040;2022-09-12T00:50:07;13.25;;;6.20;;
49296;SDS011;35163;48.878;18.040;2022-09-12T00:52:47;11.38;;;5.53;;
49296;SDS011;35163;48.878;18.040;2022-09-12T00:55:21;9.85;;;5.68;;
49296;SDS011;35163;48.878;18.040;2022-09-12T00:57:54;12.50;;;5.68;;
49296;SDS011;35163;48.878;18.040;2022-09-12T01:00:25;11.90;;;5.78;;
49296;SDS011;35163;48.878;18.040;2022-09-12T01:02:54;9.35;;;5.25;;
49296;SDS011;35163;48.878;18.040;2022-09-12T01:05:25;13.48;;;5.03;;
49296;SDS011;35163;48.878;18.040;2022-09-12T01:07:55;9.10;;;5.30;;
49296;SDS011;35163;48.878;18.040;2022-09-12T01:10:22;11.57;;;5.90;;
49296;SDS011;35163;48.878;18.040;2022-09-12T01:12:50;8.95;;;5.00;;
49296;SDS011;35163;48.878;18.040;2022-09-12T01:15:17;12.65;;;5.70;;
49296;SDS011;35163;48.878;18.040;2022-09-12T01:17:57;11.07;;;5.93;;
49296;SDS011;35163;48.878;18.040;2022-09-12T01:23:09;12.27;;;6.18;;
49296;SDS011;35163;48.878;18.040;2022-09-12T01:46:56;9.70;;;5.60;;
49296;SDS011;35163;48.878;18.040;2022-09-12T01:49:40;9.90;;;5.00;;
49296;SDS011;35163;48.878;18.040;2022-09-12T01:52:19;11.23;;;5.28;;
49296;SDS011;35163;48.878;18.040;2022-09-12T01:54:53;10.25;;;5.60;;
49296;SDS011;35163;48.878;18.040;2022-09-12T01:57:43;8.80;;;4.57;;
49296;SDS011;35163;48.878;18.040;2022-09-12T02:00:14;9.15;;;4.85;;
49296;SDS011;35163;48.878;18.040;2022-09-12T02:02:48;10.57;;;5.00;;
49296;SDS011;35163;48.878;18.040;2022-09-12T02:05:26;9.25;;;5.60;;
49296;SDS011;35163;48.878;18.040;2022-09-12T02:08:08;10.52;;;5.40;;
49296;SDS011;35163;48.878;18.040;2022-09-12T02:10:55;13.13;;;4.97;;
49296;SDS011;35163;48.878;18.040;2022-09-12T02:13:29;13.30;;;6.70;;
49296;SDS011;35163;48.878;18.040;2022-09-12T02:16:02;9.18;;;5.15;;
49296;SDS011;35163;48.878;18.040;2022-09-12T02:18:37;9.45;;;5.22;;
49296;SDS011;35163;48.878;18.040;2022-09-12T02:21:07;11.57;;;5.88;;
49296;SDS011;35163;48.878;18.040;2022-09-12T02:23:35;10.75;;;5.22;;
49296;SDS011;35163;48.878;18.040;2022-09-12T02:26:09;12.00;;;5.32;;
49296;SDS011;35163;48.878;18.040;2022-09-12T02:28:39;10.52;;;5.70;;
49296;SDS011;35163;48.878;18.040;2022-09-12T02:31:12;10.18;;;5.43;;
49296;SDS011;35163;48.878;18.040;2022-09-12T02:39:34;10.70;;;5.43;;
49296;SDS011;35163;48.878;18.040;2022-09-12T02:42:01;13.10;;;5.90;;
49296;SDS011;35163;48.878;18.040;2022-09-12T02:44:29;9.95;;;5.50;;
49296;SDS011;35163;48.878;18.040;2022-09-12T02:47:00;11.02;;;5.60;;
49296;SDS011;35163;48.878;18.040;2022-09-12T02:49:31;9.80;;;5.85;;
49296;SDS011;35163;48.878;18.040;2022-09-12T02:51:58;10.55;;;5.38;;
49296;SDS011;35163;48.878;18.040;2022-09-12T02:54:26;11.20;;;5.72;;
49296;SDS011;35163;48.878;18.040;2022-09-12T02:56:53;12.73;;;6.35;;
49296;SDS011;35163;48.878;18.040;2022-09-12T02:59:20;12.55;;;6.00;;
49296;SDS011;35163;48.878;18.040;2022-09-12T03:05:18;14.43;;;6.55;;
49296;SDS011;35163;48.878;18.040;2022-09-12T03:11:00;11.95;;;6.07;;
49296;SDS011;35163;48.878;18.040;2022-09-12T03:19:14;13.90;;;6.50;;
49296;SDS011;35163;48.878;18.040;2022-09-12T03:21:55;12.15;;;6.47;;
49296;SDS011;35163;48.878;18.040;2022-09-12T03:24:35;13.65;;;5.63;;
49296;SDS011;35163;48.878;18.040;2022-09-12T03:27:08;11.93;;;6.47;;
49296;SDS011;35163;48.878;18.040;2022-09-12T03:29:36;12.30;;;6.22;;
49296;SDS011;35163;48.878;18.040;2022-09-12T03:32:04;13.02;;;6.85;;
49296;SDS011;35163;48.878;18.040;2022-09-12T03:34:32;12.77;;;5.47;;
49296;SDS011;35163;48.878;18.040;2022-09-12T03:36:59;11.90;;;6.20;;
49296;SDS011;35163;48.878;18.040;2022-09-12T03:39:26;11.68;;;6.60;;
49296;SDS011;35163;48.878;18.040;2022-09-12T03:41:53;11.05;;;5.85;;
49296;SDS011;35163;48.878;18.040;2022-09-12T03:44:21;10.52;;;5.95;;
49296;SDS011;35163;48.878;18.040;2022-09-12T03:46:49;10.77;;;5.50;;
49296;SDS011;35163;48.878;18.040;2022-09-12T03:49:15;10.98;;;5.55;;
49296;SDS011;35163;48.878;18.040;2022-09-12T03:51:42;11.40;;;5.28;;
49296;SDS011;35163;48.878;18.040;2022-09-12T03:54:09;9.43;;;4.88;;
49296;SDS011;35163;48.878;18.040;2022-09-12T03:56:36;11.18;;;5.28;;
49296;SDS011;35163;48.878;18.040;2022-09-12T03:59:04;10.00;;;5.45;;
49296;SDS011;35163;48.878;18.040;2022-09-12T04:01:32;10.68;;;5.05;;
49296;SDS011;35163;48.878;18.040;2022-09-12T04:03:59;11.05;;;4.90;;
49296;SDS011;35163;48.878;18.040;2022-09-12T04:06:25;10.25;;;5.18;;
49296;SDS011;35163;48.878;18.040;2022-09-12T04:08:53;10.32;;;4.90;;
49296;SDS011;35163;48.878;18.040;2022-09-12T04:11:20;9.02;;;4.80;;
49296;SDS011;35163;48.878;18.040;2022-09-12T04:13:48;9.38;;;4.70;;
49296;SDS011;35163;48.878;18.040;2022-09-12T04:16:15;9.23;;;4.57;;
49296;SDS011;35163;48.878;18.040;2022-09-12T04:18:42;9.85;;;4.80;;
49296;SDS011;35163;48.878;18.040;2022-09-12T04:21:11;9.38;;;4.43;;
49296;SDS011;35163;48.878;18.040;2022-09-12T04:23:40;11.48;;;5.90;;
49296;SDS011;35163;48.878;18.040;2022-09-12T04:26:07;10.77;;;4.90;;
49296;SDS011;35163;48.878;18.040;2022-09-12T04:28:34;8.20;;;4.35;;
49296;SDS011;35163;48.878;18.040;2022-09-12T04:31:05;10.75;;;4.28;;
49296;SDS011;35163;48.878;18.040;2022-09-12T04:33:35;8.75;;;4.30;;
49296;SDS011;35163;48.878;18.040;2022-09-12T04:36:20;9.82;;;4.20;;
49296;SDS011;35163;48.878;18.040;2022-09-12T04:38:48;9.13;;;4.28;;
49296;SDS011;35163;48.878;18.040;2022-09-12T04:41:17;8.63;;;4.68;;
49296;SDS011;35163;48.878;18.040;2022-09-12T04:43:45;9.52;;;4.15;;
49296;SDS011;35163;48.878;18.040;2022-09-12T04:46:14;10.45;;;4.55;;
49296;SDS011;35163;48.878;18.040;2022-09-12T04:48:45;7.90;;;4.18;;
49296;SDS011;35163;48.878;18.040;2022-09-12T04:51:14;9.38;;;4.55;;
49296;SDS011;35163;48.878;18.040;2022-09-12T04:53:46;8.13;;;4.10;;
49296;SDS011;35163;48.878;18.040;2022-09-12T04:56:14;8.05;;;3.95;;
49296;SDS011;35163;48.878;18.040;2022-09-12T04:58:40;9.02;;;4.30;;
49296;SDS011;35163;48.878;18.040;2022-09-12T05:01:11;10.15;;;4.18;;
49296;SDS011;35163;48.878;18.040;2022-09-12T05:03:39;8.50;;;4.18;;
49296;SDS011;35163;48.878;18.040;2022-09-12T05:06:09;9.32;;;4.10;;
49296;SDS011;35163;48.878;18.040;2022-09-12T05:08:38;9.82;;;4.53;;
49296;SDS011;35163;48.878;18.040;2022-09-12T05:11:05;10.00;;;5.35;;
49296;SDS011;35163;48.878;18.040;2022-09-12T05:13:33;9.85;;;4.03;;
49296;SDS011;35163;48.878;18.040;2022-09-12T05:16:01;18.77;;;4.97;;
49296;SDS011;35163;48.878;18.040;2022-09-12T05:18:32;11.05;;;5.45;;
49296;SDS011;35163;48.878;18.040;2022-09-12T05:21:01;10.43;;;5.38;;
49296;SDS011;35163;48.878;18.040;2022-09-12T05:23:29;15.63;;;5.88;;
49296;SDS011;35163;48.878;18.040;2022-09-12T05:25:57;12.48;;;5.95;;
49296;SDS011;35163;48.878;18.040;2022-09-12T05:28:27;12.75;;;5.85;;
49296;SDS011;35163;48.878;18.040;2022-09-12T05:31:03;11.77;;;6.20;;
49296;SDS011;35163;48.878;18.040;2022-09-12T05:33:34;16.40;;;5.25;;
49296;SDS011;35163;48.878;18.040;2022-09-12T05:36:02;14.13;;;8.07;;
49296;SDS011;35163;48.878;18.040;2022-09-12T05:38:30;25.58;;;6.88;;
49296;SDS011;35163;48.878;18.040;2022-09-12T05:41:04;9.40;;;5.00;;
49296;SDS011;35163;48.878;18.040;2022-09-12T05:43:43;12.32;;;5.43;;
49296;SDS011;35163;48.878;18.040;2022-09-12T05:46:14;13.18;;;6.15;;
49296;SDS011;35163;48.878;18.040;2022-09-12T05:48:43;19.40;;;7.40;;
49296;SDS011;35163;48.878;18.040;2022-09-12T05:51:12;10.32;;;4.97;;
49296;SDS011;35163;48.878;18.040;2022-09-12T05:54:00;9.30;;;5.25;;
49296;SDS011;35163;48.878;18.040;2022-09-12T05:56:32;10.02;;;5.25;;
49296;SDS011;35163;48.878;18.040;2022-09-12T05:59:01;10.10;;;4.45;;
49296;SDS011;35163;48.878;18.040;2022-09-12T06:01:33;12.75;;;4.28;;
49296;SDS011;35163;48.878;18.040;2022-09-12T06:04:00;9.18;;;5.03;;
49296;SDS011;35163;48.878;18.040;2022-09-12T06:06:30;14.50;;;5.53;;
49296;SDS011;35163;48.878;18.040;2022-09-12T06:09:00;11.13;;;4.90;;
49296;SDS011;35163;48.878;18.040;2022-09-12T06:11:29;10.02;;;5.43;;
49296;SDS011;35163;48.878;18.040;2022-09-12T06:13:58;15.25;;;4.97;;
49296;SDS011;35163;48.878;18.040;2022-09-12T06:16:27;10.50;;;5.80;;
49296;SDS011;35163;48.878;18.040;2022-09-12T06:18:56;10.45;;;5.80;;
49296;SDS011;35163;48.878;18.040;2022-09-12T06:21:24;9.95;;;5.30;;
49296;SDS011;35163;48.878;18.040;2022-09-12T06:23:52;9.70;;;5.55;;
49296;SDS011;35163;48.878;18.040;2022-09-12T06:26:21;9.27;;;5.20;;
49296;SDS011;35163;48.878;18.040;2022-09-12T06:28:51;11.18;;;5.18;;
49296;SDS011;35163;48.878;18.040;2022-09-12T06:31:20;11.13;;;5.10;;
49296;SDS011;35163;48.878;18.040;2022-09-12T06:33:52;9.43;;;5.40;;
49296;SDS011;35163;48.878;18.040;2022-09-12T06:36:23;11.98;;;5.15;;
49296;SDS011;35163;48.878;18.040;2022-09-12T06:38:56;8.63;;;5.18;;
49296;SDS011;35163;48.878;18.040;2022-09-12T06:41:26;9.07;;;5.15;;
49296;SDS011;35163;48.878;18.040;2022-09-12T06:43:54;12.70;;;5.78;;
49296;SDS011;35163;48.878;18.040;2022-09-12T06:46:21;9.00;;;4.90;;
49296;SDS011;35163;48.878;18.040;2022-09-12T06:48:48;11.00;;;5.45;;
49296;SDS011;35163;48.878;18.040;2022-09-12T06:51:16;13.35;;;4.90;;
49296;SDS011;35163;48.878;18.040;2022-09-12T06:53:45;11.32;;;5.43;;
49296;SDS011;35163;48.878;18.040;2022-09-12T06:56:14;9.35;;;5.20;;
49296;SDS011;35163;48.878;18.040;2022-09-12T06:58:45;11.02;;;5.40;;
49296;SDS011;35163;48.878;18.040;2022-09-12T07:01:13;11.35;;;3.95;;
49296;SDS011;35163;48.878;18.040;2022-09-12T07:03:42;7.70;;;3.95;;
49296;SDS011;35163;48.878;18.040;2022-09-12T07:06:13;11.85;;;4.88;;
49296;SDS011;35163;48.878;18.040;2022-09-12T07:08:41;11.10;;;4.40;;
49296;SDS011;35163;48.878;18.040;2022-09-12T07:11:14;12.10;;;5.35;;
49296;SDS011;35163;48.878;18.040;2022-09-12T07:13:44;10.30;;;4.60;;
49296;SDS011;35163;48.878;18.040;2022-09-12T07:16:12;8.70;;;4.00;;
49296;SDS011;35163;48.878;18.040;2022-09-12T07:18:48;9.98;;;4.45;;
49296;SDS011;35163;48.878;18.040;2022-09-12T07:21:16;9.45;;;4.60;;
49296;SDS011;35163;48.878;18.040;2022-09-12T07:23:43;6.68;;;3.70;;
49296;SDS011;35163;48.878;18.040;2022-09-12T07:26:11;5.80;;;3.00;;
49296;SDS011;35163;48.878;18.040;2022-09-12T07:28:39;6.38;;;3.17;;
49296;SDS011;35163;48.878;18.040;2022-09-12T07:31:07;5.45;;;2.70;;
49296;SDS011;35163;48.878;18.040;2022-09-12T07:33:43;4.95;;;2.38;;
49296;SDS011;35163;48.878;18.040;2022-09-12T07:36:11;5.05;;;2.42;;
49296;SDS011;35163;48.878;18.040;2022-09-12T07:38:39;4.82;;;2.17;;
49296;SDS011;35163;48.878;18.040;2022-09-12T07:41:13;5.35;;;2.50;;
49296;SDS011;35163;48.878;18.040;2022-09-12T07:43:45;5.35;;;2.50;;
49296;SDS011;35163;48.878;18.040;2022-09-12T07:46:13;5.07;;;2.90;;
49296;SDS011;35163;48.878;18.040;2022-09-12T07:48:40;5.22;;;2.40;;
49296;SDS011;35163;48.878;18.040;2022-09-12T07:51:07;6.93;;;2.63;;
49296;SDS011;35163;48.878;18.040;2022-09-12T07:53:36;5.93;;;2.67;;
49296;SDS011;35163;48.878;18.040;2022-09-12T07:56:05;4.68;;;2.50;;
49296;SDS011;35163;48.878;18.040;2022-09-12T07:58:33;7.85;;;2.70;;
49296;SDS011;35163;48.878;18.040;2022-09-12T08:01:11;4.07;;;2.35;;
49296;SDS011;35163;48.878;18.040;2022-09-12T08:03:40;7.03;;;2.55;;
49296;SDS011;35163;48.878;18.040;2022-09-12T08:06:09;5.65;;;2.25;;
49296;SDS011;35163;48.878;18.040;2022-09-12T08:08:36;6.35;;;2.95;;
49296;SDS011;35163;48.878;18.040;2022-09-12T08:11:04;6.32;;;2.92;;
49296;SDS011;35163;48.878;18.040;2022-09-12T08:13:33;5.68;;;2.47;;
49296;SDS011;35163;48.878;18.040;2022-09-12T08:16:03;7.30;;;3.08;;
49296;SDS011;35163;48.878;18.040;2022-09-12T08:18:31;7.38;;;2.58;;
49296;SDS011;35163;48.878;18.040;2022-09-12T08:20:59;5.28;;;2.83;;
49296;SDS011;35163;48.878;18.040;2022-09-12T08:23:27;5.68;;;2.72;;
49296;SDS011;35163;48.878;18.040;2022-09-12T08:25:55;6.32;;;2.42;;
49296;SDS011;35163;48.878;18.040;2022-09-12T08:28:23;5.68;;;3.00;;
49296;SDS011;35163;48.878;18.040;2022-09-12T08:30:51;4.53;;;2.33;;
49296;SDS011;35163;48.878;18.040;2022-09-12T08:33:20;5.13;;;2.58;;
49296;SDS011;35163;48.878;18.040;2022-09-12T08:35:47;5.55;;;2.78;;
49296;SDS011;35163;48.878;18.040;2022-09-12T08:38:13;4.15;;;2.55;;
49296;SDS011;35163;48.878;18.040;2022-09-12T08:40:49;8.23;;;2.75;;
49296;SDS011;35163;48.878;18.040;2022-09-12T08:46:23;6.55;;;2.75;;
49296;SDS011;35163;48.878;18.040;2022-09-12T08:48:58;6.65;;;2.72;;
49296;SDS011;35163;48.878;18.040;2022-09-12T08:51:27;5.35;;;2.60;;
49296;SDS011;35163;48.878;18.040;2022-09-12T08:53:56;6.55;;;2.72;;
49296;SDS011;35163;48.878;18.040;2022-09-12T08:56:24;6.75;;;2.42;;
49296;SDS011;35163;48.878;18.040;2022-09-12T08:58:56;4.95;;;2.80;;
49296;SDS011;35163;48.878;18.040;2022-09-12T09:01:58;6.57;;;3.08;;
49296;SDS011;35163;48.878;18.040;2022-09-12T09:10:46;4.75;;;2.72;;
49296;SDS011;35163;48.878;18.040;2022-09-12T09:16:31;6.07;;;3.10;;
49296;SDS011;35163;48.878;18.040;2022-09-12T09:19:03;7.28;;;3.10;;
49296;SDS011;35163;48.878;18.040;2022-09-12T09:21:42;7.22;;;2.83;;
49296;SDS011;35163;48.878;18.040;2022-09-12T09:24:16;9.18;;;2.90;;
49296;SDS011;35163;48.878;18.040;2022-09-12T09:26:50;6.32;;;3.17;;
49296;SDS011;35163;48.878;18.040;2022-09-12T09:29:23;7.53;;;3.17;;
49296;SDS011;35163;48.878;18.040;2022-09-12T09:31:59;12.63;;;3.40;;
49296;SDS011;35163;48.878;18.040;2022-09-12T09:34:29;4.80;;;2.75;;
49296;SDS011;35163;48.878;18.040;2022-09-12T09:39:51;5.80;;;2.40;;
49296;SDS011;35163;48.878;18.040;2022-09-12T09:45:19;5.97;;;2.45;;
49296;SDS011;35163;48.878;18.040;2022-09-12T09:50:42;4.22;;;2.35;;
49296;SDS011;35163;48.878;18.040;2022-09-12T09:53:11;5.53;;;2.60;;
49296;SDS011;35163;48.878;18.040;2022-09-12T09:55:58;5.13;;;2.40;;
49296;SDS011;35163;48.878;18.040;2022-09-12T09:58:32;5.35;;;2.88;;
49296;SDS011;35163;48.878;18.040;2022-09-12T10:01:04;5.15;;;2.20;;
49296;SDS011;35163;48.878;18.040;2022-09-12T10:03:38;5.07;;;2.60;;
49296;SDS011;35163;48.878;18.040;2022-09-12T10:06:06;8.07;;;3.80;;
49296;SDS011;35163;48.878;18.040;2022-09-12T10:08:46;5.93;;;2.60;;
49296;SDS011;35163;48.878;18.040;2022-09-12T10:13:41;6.15;;;2.47;;
49296;SDS011;35163;48.878;18.040;2022-09-12T10:18:51;2.92;;;1.90;;
49296;SDS011;35163;48.878;18.040;2022-09-12T10:24:02;6.95;;;2.63;;
49296;SDS011;35163;48.878;18.040;2022-09-12T10:26:36;6.30;;;3.13;;
49296;SDS011;35163;48.878;18.040;2022-09-12T10:29:15;4.40;;;2.22;;
49296;SDS011;35163;48.878;18.040;2022-09-12T10:31:58;4.50;;;2.42;;
49296;SDS011;35163;48.878;18.040;2022-09-12T10:34:35;4.22;;;2.22;;
49296;SDS011;35163;48.878;18.040;2022-09-12T10:37:05;4.95;;;2.45;;
49296;SDS011;35163;48.878;18.040;2022-09-12T10:39:42;4.70;;;1.90;;
49296;SDS011;35163;48.878;18.040;2022-09-12T10:48:21;4.50;;;2.28;;
49296;SDS011;35163;48.878;18.040;2022-09-12T10:50:50;6.30;;;2.33;;
49296;SDS011;35163;48.878;18.040;2022-09-12T11:09:56;4.78;;;1.90;;
49296;SDS011;35163;48.878;18.040;2022-09-12T11:17:59;5.38;;;2.10;;
49296;SDS011;35163;48.878;18.040;2022-09-12T11:23:39;6.43;;;2.65;;
49296;SDS011;35163;48.878;18.040;2022-09-12T11:37:19;7.07;;;1.90;;
49296;SDS011;35163;48.878;18.040;2022-09-12T11:42:41;5.05;;;2.53;;
49296;SDS011;35163;48.878;18.040;2022-09-12T11:45:15;9.65;;;3.72;;
49296;SDS011;35163;48.878;18.040;2022-09-12T11:47:51;6.80;;;2.95;;
49296;SDS011;35163;48.878;18.040;2022-09-12T11:50:22;5.80;;;2.55;;
49296;SDS011;35163;48.878;18.040;2022-09-12T11:52:53;5.57;;;2.17;;
49296;SDS011;35163;48.878;18.040;2022-09-12T11:55:26;2.38;;;1.58;;
49296;SDS011;35163;48.878;18.040;2022-09-12T11:57:57;5.10;;;2.33;;
49296;SDS011;35163;48.878;18.040;2022-09-12T12:00:31;5.68;;;1.90;;
49296;SDS011;35163;48.878;18.040;2022-09-12T12:08:02;4.28;;;1.90;;
49296;SDS011;35163;48.878;18.040;2022-09-12T12:10:38;4.82;;;1.88;;
49296;SDS011;35163;48.878;18.040;2022-09-12T12:16:03;6.65;;;2.13;;
49296;SDS011;35163;48.878;18.040;2022-09-12T12:18:35;4.32;;;1.92;;
49296;SDS011;35163;48.878;18.040;2022-09-12T12:21:17;6.43;;;2.33;;
49296;SDS011;35163;48.878;18.040;2022-09-12T12:24:28;6.60;;;2.20;;
49296;SDS011;35163;48.878;18.040;2022-09-12T12:27:04;5.35;;;2.20;;
49296;SDS011;35163;48.878;18.040;2022-09-12T12:29:49;8.10;;;2.40;;
49296;SDS011;35163;48.878;18.040;2022-09-12T12:34:43;6.20;;;1.98;;
49296;SDS011;35163;48.878;18.040;2022-09-12T12:44:59;3.95;;;1.90;;
49296;SDS011;35163;48.878;18.040;2022-09-12T12:47:32;8.68;;;2.40;;
49296;SDS011;35163;48.878;18.040;2022-09-12T12:55:18;4.25;;;1.85;;
49296;SDS011;35163;48.878;18.040;2022-09-12T12:57:54;5.38;;;1.90;;
49296;SDS011;35163;48.878;18.040;2022-09-12T13:03:00;2.42;;;1.50;;
49296;SDS011;35163;48.878;18.040;2022-09-12T13:05:39;8.50;;;1.80;;
49296;SDS011;35163;48.878;18.040;2022-09-12T13:10:50;6.03;;;1.92;;
49296;SDS011;35163;48.878;18.040;2022-09-12T13:13:22;5.88;;;1.83;;
49296;SDS011;35163;48.878;18.040;2022-09-12T13:15:52;5.13;;;1.63;;
49296;SDS011;35163;48.878;18.040;2022-09-12T13:18:23;4.47;;;1.80;;
49296;SDS011;35163;48.878;18.040;2022-09-12T13:20:54;3.70;;;1.70;;
49296;SDS011;35163;48.878;18.040;2022-09-12T13:23:31;5.65;;;1.70;;
49296;SDS011;35163;48.878;18.040;2022-09-12T13:25:58;7.90;;;1.50;;
49296;SDS011;35163;48.878;18.040;2022-09-12T13:28:27;8.68;;;2.85;;
49296;SDS011;35163;48.878;18.040;2022-09-12T13:30:57;5.65;;;2.03;;
49296;SDS011;35163;48.878;18.040;2022-09-12T13:33:34;5.15;;;1.90;;
49296;SDS011;35163;48.878;18.040;2022-09-12T13:44:55;6.07;;;1.75;;
49296;SDS011;35163;48.878;18.040;2022-09-12T13:47:34;5.00;;;1.63;;
49296;SDS011;35163;48.878;18.040;2022-09-12T13:50:04;3.88;;;1.75;;
49296;SDS011;35163;48.878;18.040;2022-09-12T13:52:33;4.20;;;1.40;;
49296;SDS011;35163;48.878;18.040;2022-09-12T13:55:07;4.18;;;1.35;;
49296;SDS011;35163;48.878;18.040;2022-09-12T13:57:54;3.15;;;2.00;;
49296;SDS011;35163;48.878;18.040;2022-09-12T14:00:22;4.32;;;1.63;;
49296;SDS011;35163;48.878;18.040;2022-09-12T14:02:49;6.07;;;1.80;;
49296;SDS011;35163;48.878;18.040;2022-09-12T14:05:36;5.85;;;2.00;;
49296;SDS011;35163;48.878;18.040;2022-09-12T14:08:05;5.50;;;2.00;;
49296;SDS011;35163;48.878;18.040;2022-09-12T14:10:34;3.20;;;1.65;;
49296;SDS011;35163;48.878;18.040;2022-09-12T14:13:09;6.00;;;1.60;;
49296;SDS011;35163;48.878;18.040;2022-09-12T14:15:37;3.28;;;1.50;;
49296;SDS011;35163;48.878;18.040;2022-09-12T14:18:18;3.92;;;1.48;;
49296;SDS011;35163;48.878;18.040;2022-09-12T14:20:48;3.15;;;1.52;;
49296;SDS011;35163;48.878;18.040;2022-09-12T14:23:28;6.25;;;1.50;;
49296;SDS011;35163;48.878;18.040;2022-09-12T14:25:58;4.72;;;1.77;;
49296;SDS011;35163;48.878;18.040;2022-09-12T14:28:28;6.25;;;1.67;;
49296;SDS011;35163;48.878;18.040;2022-09-12T14:31:02;3.85;;;1.45;;
49296;SDS011;35163;48.878;18.040;2022-09-12T14:33:44;4.43;;;1.60;;
49296;SDS011;35163;48.878;18.040;2022-09-12T14:41:34;3.38;;;1.50;;
49296;SDS011;35163;48.878;18.040;2022-09-12T14:44:05;4.70;;;1.65;;
49296;SDS011;35163;48.878;18.040;2022-09-12T14:46:39;4.93;;;1.70;;
49296;SDS011;35163;48.878;18.040;2022-09-12T14:57:39;5.55;;;1.73;;
49296;SDS011;35163;48.878;18.040;2022-09-12T15:02:41;5.30;;;1.65;;
49296;SDS011;35163;48.878;18.040;2022-09-12T15:07:39;4.80;;;2.17;;
49296;SDS011;35163;48.878;18.040;2022-09-12T15:10:16;8.45;;;1.88;;
49296;SDS011;35163;48.878;18.040;2022-09-12T15:15:30;3.65;;;1.58;;
49296;SDS011;35163;48.878;18.040;2022-09-12T15:17:58;3.47;;;1.70;;
49296;SDS011;35163;48.878;18.040;2022-09-12T15:20:41;3.22;;;1.70;;
49296;SDS011;35163;48.878;18.040;2022-09-12T15:25:49;4.43;;;1.50;;
49296;SDS011;35163;48.878;18.040;2022-09-12T15:28:17;3.20;;;1.50;;
49296;SDS011;35163;48.878;18.040;2022-09-12T15:30:46;6.03;;;1.52;;
49296;SDS011;35163;48.878;18.040;2022-09-12T15:33:17;5.43;;;1.80;;
49296;SDS011;35163;48.878;18.040;2022-09-12T15:35:46;2.58;;;1.38;;
49296;SDS011;35163;48.878;18.040;2022-09-12T15:38:13;4.68;;;1.52;;
49296;SDS011;35163;48.878;18.040;2022-09-12T15:40:39;3.67;;;1.80;;
49296;SDS011;35163;48.878;18.040;2022-09-12T15:43:06;4.90;;;1.90;;
49296;SDS011;35163;48.878;18.040;2022-09-12T15:45:33;3.35;;;1.50;;
49296;SDS011;35163;48.878;18.040;2022-09-12T15:48:00;2.88;;;1.50;;
49296;SDS011;35163;48.878;18.040;2022-09-12T15:50:29;6.07;;;1.75;;
49296;SDS011;35163;48.878;18.040;2022-09-12T15:52:55;4.70;;;1.63;;
49296;SDS011;35163;48.878;18.040;2022-09-12T15:55:31;3.40;;;1.60;;
49296;SDS011;35163;48.878;18.040;2022-09-12T15:57:58;9.75;;;2.13;;
49296;SDS011;35163;48.878;18.040;2022-09-12T16:00:32;9.37;;;1.70;;
49296;SDS011;35163;48.878;18.040;2022-09-12T16:02:58;5.32;;;1.95;;
49296;SDS011;35163;48.878;18.040;2022-09-12T16:05:26;4.38;;;1.92;;
49296;SDS011;35163;48.878;18.040;2022-09-12T16:07:53;3.80;;;1.70;;
49296;SDS011;35163;48.878;18.040;2022-09-12T16:10:22;4.28;;;1.88;;
49296;SDS011;35163;48.878;18.040;2022-09-12T16:12:51;5.32;;;1.70;;
49296;SDS011;35163;48.878;18.040;2022-09-12T16:15:21;5.20;;;2.10;;
49296;SDS011;35163;48.878;18.040;2022-09-12T16:17:49;3.25;;;1.52;;
49296;SDS011;35163;48.878;18.040;2022-09-12T16:20:16;5.72;;;2.35;;
49296;SDS011;35163;48.878;18.040;2022-09-12T16:22:44;5.13;;;1.83;;
49296;SDS011;35163;48.878;18.040;2022-09-12T16:25:10;6.05;;;1.80;;
49296;SDS011;35163;48.878;18.040;2022-09-12T16:27:37;4.63;;;1.88;;
49296;SDS011;35163;48.878;18.040;2022-09-12T16:30:04;8.75;;;2.30;;
49296;SDS011;35163;48.878;18.040;2022-09-12T16:32:32;16.30;;;2.00;;
49296;SDS011;35163;48.878;18.040;2022-09-12T16:34:59;5.28;;;1.83;;
49296;SDS011;35163;48.878;18.040;2022-09-12T16:37:26;6.90;;;1.90;;
49296;SDS011;35163;48.878;18.040;2022-09-12T16:39:53;5.43;;;2.08;;
49296;SDS011;35163;48.878;18.040;2022-09-12T16:42:19;7.15;;;2.45;;
49296;SDS011;35163;48.878;18.040;2022-09-12T16:44:46;7.75;;;2.90;;
49296;SDS011;35163;48.878;18.040;2022-09-12T16:47:13;6.15;;;2.08;;
49296;SDS011;35163;48.878;18.040;2022-09-12T16:49:40;4.88;;;2.28;;
49296;SDS011;35163;48.878;18.040;2022-09-12T16:52:06;5.45;;;1.90;;
49296;SDS011;35163;48.878;18.040;2022-09-12T16:54:33;5.75;;;2.22;;
49296;SDS011;35163;48.878;18.040;2022-09-12T16:57:00;7.35;;;2.40;;
49296;SDS011;35163;48.878;18.040;2022-09-12T16:59:26;4.65;;;1.70;;
49296;SDS011;35163;48.878;18.040;2022-09-12T17:01:53;5.47;;;2.00;;
49296;SDS011;35163;48.878;18.040;2022-09-12T17:04:20;8.15;;;1.90;;
49296;SDS011;35163;48.878;18.040;2022-09-12T17:06:49;3.38;;;1.80;;
49296;SDS011;35163;48.878;18.040;2022-09-12T17:09:15;4.30;;;1.80;;
49296;SDS011;35163;48.878;18.040;2022-09-12T17:11:45;5.20;;;1.80;;
49296;SDS011;35163;48.878;18.040;2022-09-12T17:14:15;2.78;;;1.70;;
49296;SDS011;35163;48.878;18.040;2022-09-12T17:16:43;4.88;;;2.00;;
49296;SDS011;35163;48.878;18.040;2022-09-12T17:19:21;4.78;;;2.35;;
49296;SDS011;35163;48.878;18.040;2022-09-12T17:21:55;4.65;;;1.85;;
49296;SDS011;35163;48.878;18.040;2022-09-12T17:24:22;4.20;;;2.00;;
49296;SDS011;35163;48.878;18.040;2022-09-12T17:26:49;3.90;;;1.98;;
49296;SDS011;35163;48.878;18.040;2022-09-12T17:29:16;9.02;;;2.78;;
49296;SDS011;35163;48.878;18.040;2022-09-12T17:31:43;5.43;;;2.75;;
49296;SDS011;35163;48.878;18.040;2022-09-12T17:34:11;4.88;;;2.50;;
49296;SDS011;35163;48.878;18.040;2022-09-12T17:36:40;8.10;;;2.63;;
49296;SDS011;35163;48.878;18.040;2022-09-12T17:39:10;20.20;;;9.30;;
49296;SDS011;35163;48.878;18.040;2022-09-12T17:41:38;8.45;;;4.20;;
49296;SDS011;35163;48.878;18.040;2022-09-12T17:44:07;5.90;;;2.88;;
49296;SDS011;35163;48.878;18.040;2022-09-12T17:46:37;6.22;;;2.47;;
49296;SDS011;35163;48.878;18.040;2022-09-12T17:49:06;6.32;;;1.85;;
49296;SDS011;35163;48.878;18.040;2022-09-12T17:51:35;6.03;;;2.15;;
49296;SDS011;35163;48.878;18.040;2022-09-12T17:54:03;4.55;;;2.05;;